Time;durP1;ratioP1;P1;durP2;ratioP2;P2;SDS_P1;SDS_P2;PMS_P1;PMS_P2;Temp;Humidity;BMP_temperature;BMP_pressure;BME280_temperature;BME280_humidity;BME280_pressure;Samples;Min_cycle;Max_cycle;Signal;HPM_P1;HPM_P2
2022/03/17 00:02:09;;;;;;;10.48;2.70;;;22.90;84.50;;;;;;5015149;28;20103;-68
2022/03/17 00:04:36;;;;;;;8.65;2.47;;;23.00;84.10;;;;;;5031169;28;20038;-68
2022/03/17 00:07:03;;;;;;;9.02;2.28;;;23.00;84.10;;;;;;5031767;28;20412;-67
2022/03/17 00:09:31;;;;;;;10.30;2.38;;;23.00;83.90;;;;;;4997518;28;20052;-68
2022/03/17 00:11:58;;;;;;;9.02;2.63;;;23.00;84.30;;;;;;5009702;28;20045;-68
2022/03/17 00:14:26;;;;;;;9.48;2.40;;;23.00;84.30;;;;;;5005429;28;20026;-67
2022/03/17 00:16:53;;;;;;;9.18;2.40;;;23.10;84.20;;;;;;5014161;28;20029;-68
2022/03/17 00:19:20;;;;;;;10.48;2.63;;;23.10;84.30;;;;;;5014105;28;20026;-68
2022/03/17 00:21:47;;;;;;;6.60;1.85;;;23.10;84.40;;;;;;4997676;28;20132;-68
2022/03/17 00:24:14;;;;;;;6.50;2.35;;;23.10;83.80;;;;;;5031528;28;20570;-68
2022/03/17 00:26:42;;;;;;;6.82;2.03;;;23.20;83.90;;;;;;5013066;28;20037;-68
2022/03/17 00:29:09;;;;;;;10.50;2.42;;;23.20;84.10;;;;;;5030849;28;20022;-68
2022/03/17 00:31:39;;;;;;;9.30;2.08;;;23.10;84.20;;;;;;5031220;28;20033;-68
2022/03/17 00:34:10;;;;;;;8.45;2.45;;;23.20;83.90;;;;;;5014573;28;20029;-68
2022/03/17 00:36:37;;;;;;;18.63;2.30;;;23.20;83.60;;;;;;5013043;28;20034;-68
2022/03/17 00:39:05;;;;;;;14.13;2.33;;;23.20;84.00;;;;;;5031380;28;20104;-68
2022/03/17 00:41:32;;;;;;;13.05;2.20;;;23.30;84.00;;;;;;4985989;28;20171;-68
2022/03/17 00:44:00;;;;;;;5.65;1.70;;;23.30;83.80;;;;;;5013848;28;20033;-68
2022/03/17 00:46:27;;;;;;;7.80;2.10;;;23.30;83.30;;;;;;5021364;28;20151;-68
2022/03/17 00:48:55;;;;;;;9.35;2.28;;;23.40;83.60;;;;;;5013274;28;20048;-68
2022/03/17 00:51:22;;;;;;;8.02;2.42;;;23.40;83.30;;;;;;5031090;28;20496;-68
2022/03/17 00:53:49;;;;;;;7.70;2.28;;;23.30;83.50;;;;;;5032150;28;20420;-68
2022/03/17 00:56:16;;;;;;;9.40;2.10;;;23.30;83.50;;;;;;5013413;28;20049;-68
2022/03/17 00:58:48;;;;;;;14.95;3.22;;;23.30;83.40;;;;;;5030624;28;20053;-68
2022/03/17 01:01:16;;;;;;;10.52;2.63;;;23.30;83.60;;;;;;5032946;28;20036;-68
2022/03/17 01:03:44;;;;;;;17.20;3.38;;;23.30;83.30;;;;;;4996976;28;20052;-68
2022/03/17 01:06:11;;;;;;;32.90;4.53;;;23.30;83.30;;;;;;4995108;28;20045;-68
2022/03/17 01:08:39;;;;;;;18.65;4.20;;;23.40;83.50;;;;;;5013180;28;20045;-68
2022/03/17 01:11:07;;;;;;;19.63;3.88;;;23.50;84.00;;;;;;5012686;28;20025;-68
2022/03/17 01:13:34;;;;;;;13.48;2.72;;;23.40;83.50;;;;;;4996714;28;20471;-68
2022/03/17 01:16:01;;;;;;;16.23;2.67;;;23.50;83.50;;;;;;5014064;28;20025;-68
2022/03/17 01:18:28;;;;;;;15.55;2.97;;;23.40;83.50;;;;;;5013421;28;20025;-68
2022/03/17 01:20:57;;;;;;;8.48;3.03;;;23.30;83.00;;;;;;5031088;28;20042;-68
2022/03/17 01:23:24;;;;;;;9.45;2.50;;;23.40;82.60;;;;;;5013153;28;20491;-68
2022/03/17 01:25:52;;;;;;;26.08;4.18;;;23.50;83.20;;;;;;5033711;28;20033;-68
2022/03/17 01:28:19;;;;;;;13.07;2.90;;;23.60;83.10;;;;;;5012541;28;20045;-68
2022/03/17 01:30:46;;;;;;;18.67;3.55;;;23.60;83.30;;;;;;5011419;28;20025;-68
2022/03/17 01:33:13;;;;;;;14.82;3.17;;;23.60;83.40;;;;;;5029485;28;20037;-68
2022/03/17 01:35:40;;;;;;;11.35;3.00;;;23.60;83.40;;;;;;5011501;28;20048;-68
2022/03/17 01:38:08;;;;;;;14.32;2.30;;;23.70;83.30;;;;;;4989628;28;20120;-68
2022/03/17 01:40:35;;;;;;;12.88;2.25;;;23.80;81.30;;;;;;4995931;28;20026;-68
2022/03/17 01:43:03;;;;;;;11.38;2.17;;;23.80;81.70;;;;;;5012383;28;20038;-68
2022/03/17 01:45:30;;;;;;;10.65;2.75;;;23.80;81.60;;;;;;5009197;28;20029;-68
2022/03/17 01:47:57;;;;;;;8.85;2.13;;;23.80;81.80;;;;;;5030000;28;20100;-68
2022/03/17 01:50:24;;;;;;;6.13;2.25;;;23.80;81.90;;;;;;5034184;28;20029;-68
2022/03/17 01:52:52;;;;;;;7.53;2.10;;;23.80;81.00;;;;;;5011547;28;20484;-68
2022/03/17 01:55:19;;;;;;;14.68;2.70;;;23.70;81.00;;;;;;4996939;28;20052;-67
2022/03/17 01:57:47;;;;;;;16.98;3.00;;;23.70;81.50;;;;;;5000720;28;20025;-67
2022/03/17 02:00:18;;;;;;;17.00;4.00;;;23.70;81.60;;;;;;5000653;28;20037;-68
2022/03/17 02:02:47;;;;;;;12.77;3.78;;;23.70;82.00;;;;;;4990986;28;20112;-67
2022/03/17 02:05:14;;;;;;;10.15;2.30;;;23.70;82.30;;;;;;5028958;28;20121;-68
2022/03/17 02:07:51;;;;;;;6.18;2.00;;;23.70;82.50;;;;;;4992202;28;20056;-68
2022/03/17 02:10:19;;;;;;;10.93;2.40;;;23.70;82.50;;;;;;5009498;28;20428;-67
2022/03/17 02:15:34;;;;;;;7.35;2.33;;;23.70;81.90;;;;;;5032569;28;20048;-68
2022/03/17 02:18:02;;;;;;;5.68;2.28;;;23.70;82.30;;;;;;5037597;28;20025;-67
2022/03/17 02:20:30;;;;;;;16.48;3.55;;;23.80;82.80;;;;;;5029708;28;20037;-68
2022/03/17 02:25:33;;;;;;;13.15;2.80;;;23.80;82.20;;;;;;4991875;28;20103;-68
2022/03/17 02:25:52;;;;;;;9.50;2.30;;;23.90;81.70;;;;;;5015191;28;20122;-67
2022/03/17 02:28:20;;;;;;;10.05;2.30;;;24.00;80.70;;;;;;4991094;28;20385;-67
2022/03/17 02:30:48;;;;;;;7.95;2.20;;;24.00;81.40;;;;;;5011794;28;20037;-68
2022/03/17 02:33:16;;;;;;;11.05;2.58;;;24.00;81.40;;;;;;5027995;28;20025;-68
2022/03/17 02:35:44;;;;;;;10.98;2.17;;;24.00;81.20;;;;;;5029395;28;20124;-68
2022/03/17 02:38:14;;;;;;;22.40;2.70;;;24.00;81.20;;;;;;5011809;28;20095;-67
2022/03/17 02:40:43;;;;;;;10.48;2.42;;;24.00;81.50;;;;;;5013077;28;20114;-68
2022/03/17 02:43:14;;;;;;;18.33;3.70;;;24.10;81.80;;;;;;5012916;28;20459;-68
2022/03/17 09:40:03;;;;;;;8.23;1.80;;;23.20;86.70;;;;;;5017139;28;20052;-67
2022/03/17 09:42:30;;;;;;;4.60;1.60;;;23.20;86.80;;;;;;5012009;28;20050;-68
2022/03/17 09:44:57;;;;;;;9.63;1.85;;;23.20;86.80;;;;;;5009823;28;20033;-67
2022/03/17 09:47:27;;;;;;;10.55;1.80;;;23.20;86.90;;;;;;5031596;28;20029;-66
2022/03/17 09:49:56;;;;;;;5.05;1.70;;;23.20;86.90;;;;;;4997911;28;20038;-66
2022/03/17 09:52:23;;;;;;;4.88;1.77;;;23.20;86.80;;;;;;5030477;28;20030;-67
2022/03/17 09:54:52;;;;;;;4.15;1.45;;;23.20;86.80;;;;;;5011949;28;20524;-67
2022/03/17 09:57:20;;;;;;;6.80;2.00;;;23.20;86.80;;;;;;5008718;28;20063;-70
2022/03/17 09:59:56;;;;;;;10.48;1.80;;;23.20;86.90;;;;;;4996754;28;20025;-69
2022/03/17 10:02:24;;;;;;;6.07;1.90;;;23.20;86.80;;;;;;5009414;28;20420;-70
2022/03/17 10:04:51;;;;;;;8.88;2.00;;;23.20;86.80;;;;;;4995681;28;20041;-69
2022/03/17 10:07:20;;;;;;;6.32;1.80;;;23.20;86.80;;;;;;5030504;28;20041;-68
2022/03/17 10:09:48;;;;;;;6.50;1.55;;;23.10;86.80;;;;;;5030582;28;20084;-68
2022/03/17 10:12:22;;;;;;;7.95;1.95;;;23.10;86.70;;;;;;5007831;28;20112;-69
2022/03/17 10:14:50;;;;;;;5.45;1.42;;;23.10;86.70;;;;;;5007169;28;20511;-69
2022/03/17 10:17:38;;;;;;;5.78;1.58;;;23.20;86.60;;;;;;5024981;28;20068;-69
2022/03/17 10:20:15;;;;;;;8.13;1.80;;;23.20;86.50;;;;;;4996481;28;20045;-71
2022/03/17 10:22:53;;;;;;;5.38;1.52;;;23.20;86.40;;;;;;5029702;28;20516;-68
2022/03/17 10:25:25;;;;;;;7.72;1.65;;;23.10;86.40;;;;;;4991582;28;20160;-69
2022/03/17 10:27:55;;;;;;;9.07;2.17;;;23.10;86.30;;;;;;4983627;28;20041;-69
2022/03/17 10:30:35;;;;;;;7.78;2.08;;;23.10;86.20;;;;;;5010519;28;20111;-68
2022/03/17 10:33:15;;;;;;;5.00;1.50;;;23.10;86.20;;;;;;5006454;28;20041;-68
2022/03/17 10:35:49;;;;;;;8.95;1.88;;;23.10;86.20;;;;;;4989473;28;20126;-68
2022/03/17 10:38:17;;;;;;;2.90;1.58;;;23.10;86.10;;;;;;5028523;28;20144;-68
2022/03/17 10:40:45;;;;;;;4.72;1.70;;;23.10;86.10;;;;;;5028495;28;20037;-68
2022/03/17 10:43:19;;;;;;;7.35;1.92;;;23.10;86.10;;;;;;5011263;28;20046;-68
2022/03/17 10:45:47;;;;;;;10.80;2.38;;;23.10;86.00;;;;;;5013114;28;21527;-68
2022/03/17 10:48:14;;;;;;;8.60;1.90;;;23.10;86.00;;;;;;5023034;28;20030;-74
2022/03/17 10:50:45;;;;;;;7.68;2.35;;;23.20;86.00;;;;;;5011791;28;20042;-73
2022/03/17 10:53:13;;;;;;;8.45;2.00;;;23.10;86.00;;;;;;5012624;28;20387;-72
2022/03/17 10:55:40;;;;;;;10.18;1.83;;;23.10;86.10;;;;;;5029377;28;20112;-72
2022/03/17 10:58:17;;;;;;;7.72;1.83;;;23.10;86.00;;;;;;4992045;28;20037;-72
2022/03/17 11:00:51;;;;;;;8.00;1.88;;;23.10;86.00;;;;;;5028991;28;20037;-72
2022/03/17 11:03:19;;;;;;;6.53;1.90;;;23.10;86.00;;;;;;5028937;28;20038;-73
2022/03/17 11:05:51;;;;;;;5.75;1.77;;;23.20;86.00;;;;;;5031958;28;20156;-73
2022/03/17 11:08:21;;;;;;;7.10;1.50;;;23.20;86.00;;;;;;5009053;28;20120;-74
2022/03/17 11:15:42;;;;;;;12.88;2.50;;;23.20;86.00;;;;;;5019511;28;20040;-74
2022/03/17 11:18:21;;;;;;;11.60;2.10;;;23.10;86.00;;;;;;4994195;28;20115;-74
2022/03/17 11:20:48;;;;;;;10.13;2.20;;;23.10;86.10;;;;;;4995993;28;20419;-73
2022/03/17 11:23:20;;;;;;;8.90;2.40;;;23.10;86.10;;;;;;5003757;28;20104;-74
2022/03/17 11:25:58;;;;;;;9.48;2.38;;;23.00;86.10;;;;;;4998783;28;20053;-75
2022/03/17 11:28:32;;;;;;;11.15;2.10;;;23.10;86.20;;;;;;4999032;28;20083;-74
2022/03/17 11:31:01;;;;;;;7.95;1.85;;;23.10;86.20;;;;;;5002078;28;20451;-75
2022/03/17 11:33:44;;;;;;;7.22;2.00;;;23.10;86.30;;;;;;4987488;28;20223;-75
2022/03/17 11:36:19;;;;;;;7.00;1.90;;;23.10;86.30;;;;;;5015106;28;20377;-75
2022/03/17 11:39:09;;;;;;;8.48;2.20;;;23.10;86.30;;;;;;5031161;28;20440;-74
2022/03/17 11:41:42;;;;;;;;;;;23.10;86.30;;;;;;5016866;28;20091;-74
2022/03/17 11:44:09;;;;;;;7.00;1.80;;;23.00;86.30;;;;;;5011478;28;20183;-74
2022/03/17 11:46:38;;;;;;;8.23;2.22;;;23.10;86.40;;;;;;5004556;28;20052;-74
2022/03/17 11:49:25;;;;;;;14.65;2.13;;;23.10;86.40;;;;;;5014962;28;20512;-74
2022/03/17 11:51:56;;;;;;;11.20;2.47;;;23.00;86.40;;;;;;5026230;28;20044;-74
2022/03/17 11:54:23;;;;;;;8.10;2.05;;;23.10;86.40;;;;;;5014606;28;20388;-74
2022/03/17 11:57:04;;;;;;;8.35;2.00;;;23.10;86.40;;;;;;4982906;28;20124;-74
2022/03/17 11:59:51;;;;;;;15.48;2.40;;;23.10;86.50;;;;;;5003713;28;20463;-75
2022/03/17 12:02:19;;;;;;;10.23;2.05;;;23.10;86.50;;;;;;5010121;28;20211;-75
2022/03/17 12:04:51;;;;;;;7.80;1.98;;;23.00;86.60;;;;;;5017701;28;20471;-76
2022/03/17 12:07:20;;;;;;;7.28;1.65;;;23.00;86.60;;;;;;4982647;28;20084;-76
2022/03/17 12:09:47;;;;;;;11.00;2.53;;;23.00;86.70;;;;;;4998048;28;20028;-76
2022/03/17 12:12:19;;;;;;;8.45;2.00;;;23.00;86.70;;;;;;5014591;28;20282;-76
2022/03/17 12:14:56;;;;;;;5.72;1.67;;;23.00;86.90;;;;;;5013432;28;20061;-76
2022/03/17 12:17:24;;;;;;;9.30;2.20;;;23.00;87.00;;;;;;4983589;28;20620;-75
2022/03/17 12:20:11;;;;;;;8.95;2.17;;;23.00;87.20;;;;;;4994972;28;20518;-76
2022/03/17 12:22:40;;;;;;;11.95;2.00;;;23.00;87.30;;;;;;4995290;28;20399;-75
2022/03/17 12:25:23;;;;;;;7.30;2.22;;;23.00;87.40;;;;;;4979384;28;20041;-75
2022/03/17 12:28:00;;;;;;;8.00;2.28;;;23.00;87.60;;;;;;4991170;28;20518;-75
2022/03/17 12:30:28;;;;;;;13.07;2.20;;;23.00;87.70;;;;;;4984895;28;20041;-75
2022/03/17 12:32:55;;;;;;;8.32;2.38;;;23.00;87.80;;;;;;4969823;28;20054;-75
2022/03/17 12:35:32;;;;;;;6.80;1.77;;;23.00;87.80;;;;;;4991327;28;20045;-75
2022/03/17 12:38:03;;;;;;;9.18;2.33;;;22.90;87.90;;;;;;4993388;28;20053;-75
2022/03/17 12:40:43;;;;;;;10.13;2.38;;;23.00;88.00;;;;;;4985183;28;20029;-75
2022/03/17 12:43:18;;;;;;;12.35;2.15;;;22.90;88.10;;;;;;4992515;28;20104;-75
2022/03/17 12:45:49;;;;;;;14.48;2.47;;;22.90;88.20;;;;;;4965876;28;20081;-74
2022/03/17 12:48:17;;;;;;;5.90;1.60;;;22.90;88.20;;;;;;5014530;28;20421;-75
2022/03/17 12:50:45;;;;;;;9.65;2.10;;;22.90;88.30;;;;;;4980808;28;20488;-74
2022/03/17 12:53:12;;;;;;;6.88;2.15;;;22.90;88.30;;;;;;4994490;28;20544;-75
2022/03/17 12:55:39;;;;;;;7.43;2.17;;;22.90;88.50;;;;;;4994644;28;20076;-74
2022/03/17 12:58:07;;;;;;;7.00;2.05;;;22.80;88.50;;;;;;4980963;28;20037;-75
2022/03/17 13:00:34;;;;;;;9.55;2.50;;;22.80;88.60;;;;;;4982211;28;20030;-74
2022/03/17 13:03:02;;;;;;;12.35;2.28;;;22.80;88.60;;;;;;4964750;28;20145;-74
2022/03/17 13:08:15;;;;;;;9.90;2.25;;;22.80;88.60;;;;;;4990913;28;20090;-74
2022/03/17 13:16:24;;;;;;;11.85;2.42;;;22.80;88.70;;;;;;4971927;28;20052;-74
2022/03/17 13:18:51;;;;;;;9.65;2.35;;;22.80;88.60;;;;;;4978263;28;20026;-76
2022/03/17 13:21:20;;;;;;;10.68;2.05;;;22.80;88.70;;;;;;4976912;28;20566;-76
2022/03/17 13:23:47;;;;;;;6.10;1.85;;;22.80;88.80;;;;;;4978366;28;20040;-76
2022/03/17 13:26:25;;;;;;;7.63;2.22;;;22.80;88.80;;;;;;4993558;28;20030;-76
2022/03/17 13:29:03;;;;;;;7.25;2.22;;;22.80;88.90;;;;;;4975561;28;20038;-75
2022/03/17 13:31:41;;;;;;;12.98;2.55;;;22.80;88.90;;;;;;4976919;28;20583;-75
2022/03/17 13:34:08;;;;;;;8.95;2.45;;;22.70;88.80;;;;;;4993248;28;20034;-76
2022/03/17 13:37:00;;;;;;;9.20;2.35;;;22.80;88.80;;;;;;4971671;28;20493;-75
2022/03/17 13:39:35;;;;;;;7.38;1.67;;;22.70;88.90;;;;;;4986540;28;20038;-76
2022/03/17 13:42:13;;;;;;;7.15;2.08;;;22.70;88.80;;;;;;4964057;28;20046;-75
2022/03/17 13:44:47;;;;;;;8.57;2.08;;;22.70;88.90;;;;;;5006847;28;20594;-74
2022/03/17 13:47:28;;;;;;;7.32;1.80;;;22.70;89.10;;;;;;4993510;28;20096;-74
2022/03/17 13:50:24;;;;;;;6.80;1.90;;;22.70;89.00;;;;;;4977199;28;20037;-74
2022/03/17 13:53:10;;;;;;;7.28;1.80;;;22.70;89.20;;;;;;4993173;28;20522;-74
2022/03/17 13:55:52;;;;;;;10.40;2.50;;;22.70;89.30;;;;;;4992946;28;20061;-74
2022/03/17 13:58:22;;;;;;;6.90;1.60;;;22.70;89.40;;;;;;4994859;28;20515;-75
2022/03/17 14:00:50;;;;;;;;;;;22.70;89.40;;;;;;5010347;28;20596;-74
2022/03/17 14:03:20;;;;;;;8.00;2.40;;;22.60;89.60;;;;;;4992865;28;20264;-74
2022/03/17 14:06:07;;;;;;;10.63;2.63;;;22.60;89.50;;;;;;5010850;28;20030;-74
2022/03/17 14:08:56;;;;;;;7.65;1.90;;;22.60;89.70;;;;;;4981732;28;20736;-74
2022/03/17 14:11:26;;;;;;;6.55;2.03;;;22.60;89.50;;;;;;4979170;28;20033;-74
2022/03/17 14:14:04;;;;;;;8.20;2.30;;;22.60;89.60;;;;;;4975479;28;20073;-73
2022/03/17 14:16:32;;;;;;;8.40;1.90;;;22.60;89.60;;;;;;4988018;28;20042;-74
2022/03/17 14:19:03;;;;;;;9.95;2.00;;;22.60;89.60;;;;;;4992026;28;20404;-74
2022/03/17 14:21:31;;;;;;;10.20;2.10;;;22.60;89.60;;;;;;4976964;28;20104;-74
2022/03/17 14:24:12;;;;;;;6.43;2.15;;;22.70;89.60;;;;;;4976041;28;20042;-74
2022/03/17 14:26:48;;;;;;;11.63;2.58;;;22.60;89.70;;;;;;4985395;28;20080;-74
2022/03/17 14:29:17;;;;;;;10.35;2.47;;;22.60;89.50;;;;;;4977324;28;20701;-74
2022/03/17 14:31:46;;;;;;;6.82;1.77;;;22.60;89.50;;;;;;4992043;28;20041;-74
2022/03/17 14:34:13;;;;;;;9.07;2.08;;;22.60;89.50;;;;;;4993852;28;20061;-74
2022/03/17 14:36:42;;;;;;;7.80;2.25;;;22.60;89.60;;;;;;4978779;28;20423;-74
2022/03/17 14:39:09;;;;;;;6.47;1.88;;;22.60;89.60;;;;;;4977372;28;20042;-74
2022/03/17 14:41:37;;;;;;;8.57;2.30;;;22.60;89.60;;;;;;4974938;28;20543;-74
2022/03/17 14:44:05;;;;;;;7.13;1.65;;;22.60;89.70;;;;;;4996036;28;20058;-73
2022/03/17 14:46:32;;;;;;;7.45;2.25;;;22.60;89.70;;;;;;4992179;28;20459;-74
2022/03/17 14:49:00;;;;;;;10.52;2.20;;;22.60;89.60;;;;;;4993727;28;20488;-74
2022/03/17 14:51:28;;;;;;;10.23;2.00;;;22.60;89.70;;;;;;4980985;28;20437;-74
2022/03/17 14:53:55;;;;;;;9.05;2.10;;;22.60;89.70;;;;;;4969743;28;20065;-75
2022/03/17 14:56:24;;;;;;;11.00;1.92;;;22.60;89.70;;;;;;4994247;28;20026;-75
2022/03/17 14:58:52;;;;;;;10.82;2.25;;;22.60;89.70;;;;;;4988571;28;20053;-75
2022/03/17 15:01:25;;;;;;;8.43;1.58;;;22.60;89.70;;;;;;4994319;28;20410;-74
2022/03/17 15:03:52;;;;;;;9.98;2.38;;;22.60;89.70;;;;;;4974313;28;20081;-74
2022/03/17 15:06:21;;;;;;;9.68;2.10;;;22.60;89.70;;;;;;4974922;28;20062;-74
2022/03/17 15:08:49;;;;;;;10.85;2.08;;;22.50;89.80;;;;;;4977304;28;20085;-73
2022/03/17 15:11:18;;;;;;;9.10;1.95;;;22.50;89.80;;;;;;4989267;28;20061;-74
2022/03/17 15:13:48;;;;;;;8.77;2.17;;;22.50;89.90;;;;;;4996588;28;20101;-74
2022/03/17 15:16:15;;;;;;;;;;;22.50;89.90;;;;;;4981053;28;20044;-74
2022/03/17 15:18:42;;;;;;;8.93;2.20;;;22.50;89.80;;;;;;4996921;28;19960;-72
2022/03/17 15:21:11;;;;;;;9.23;2.00;;;22.50;89.90;;;;;;5011892;28;20030;-71
2022/03/17 15:23:38;;;;;;;12.55;2.95;;;22.50;90.20;;;;;;4993880;28;20088;-71
2022/03/17 15:26:09;;;;;;;11.85;2.17;;;22.50;90.20;;;;;;4996565;28;20085;-71
2022/03/17 15:31:23;;;;;;;9.90;2.05;;;22.50;90.20;;;;;;5012614;28;20041;-71
2022/03/17 15:33:51;;;;;;;12.77;2.63;;;22.40;90.30;;;;;;4980619;28;20129;-72
2022/03/17 15:36:18;;;;;;;9.60;2.20;;;22.50;90.30;;;;;;5013418;28;20109;-72
2022/03/17 15:38:46;;;;;;;12.15;2.45;;;22.50;90.70;;;;;;4979806;28;20034;-70
2022/03/17 15:41:17;;;;;;;9.43;2.17;;;22.40;90.70;;;;;;5011670;28;20026;-71
2022/03/17 15:43:44;;;;;;;4.32;1.88;;;22.40;90.70;;;;;;4996117;28;20491;-71
2022/03/17 15:46:12;;;;;;;10.75;2.15;;;22.40;90.70;;;;;;4996112;28;20125;-72
2022/03/17 15:48:39;;;;;;;5.88;1.95;;;22.40;90.80;;;;;;4980353;28;20033;-71
2022/03/17 15:51:08;;;;;;;8.50;2.08;;;22.40;90.80;;;;;;4979869;28;20033;-71
2022/03/17 15:53:35;;;;;;;9.10;2.65;;;22.40;90.80;;;;;;4987779;28;20470;-71
2022/03/17 15:56:05;;;;;;;10.55;2.25;;;22.30;90.80;;;;;;4996033;28;20036;-71
2022/03/17 15:58:32;;;;;;;7.07;1.95;;;22.40;90.80;;;;;;4996079;28;20040;-72
2022/03/17 16:01:00;;;;;;;7.47;2.33;;;22.30;91.00;;;;;;4979078;28;20038;-71
2022/03/17 16:03:27;;;;;;;17.38;2.58;;;22.30;90.80;;;;;;4986589;28;20042;-70
2022/03/17 16:05:55;;;;;;;9.63;2.10;;;22.40;91.00;;;;;;4996293;28;20075;-71
2022/03/17 16:08:22;;;;;;;8.02;2.15;;;22.30;91.10;;;;;;4995280;28;20492;-72
2022/03/17 16:16:20;;;;;;;10.38;2.35;;;22.30;91.00;;;;;;5004628;28;20064;-70
2022/03/17 16:18:47;;;;;;;12.73;2.60;;;22.30;91.00;;;;;;5005017;28;20034;-69
2022/03/17 16:21:16;;;;;;;11.30;2.53;;;22.30;91.10;;;;;;5014494;28;20407;-69
2022/03/17 16:23:45;;;;;;;10.07;2.85;;;22.30;91.10;;;;;;5015523;28;20128;-69
2022/03/17 16:26:12;;;;;;;7.95;2.35;;;22.30;91.10;;;;;;5032894;28;20052;-69
2022/03/17 16:28:39;;;;;;;9.48;1.92;;;22.30;91.10;;;;;;5031113;28;20537;-69
2022/03/17 16:31:32;;;;;;;11.18;2.13;;;22.30;91.10;;;;;;5014600;28;20488;-69
2022/03/17 16:34:00;;;;;;;11.10;2.28;;;22.30;91.10;;;;;;5028611;28;20029;-70
2022/03/17 16:36:27;;;;;;;7.60;2.20;;;22.30;91.20;;;;;;5026340;28;20040;-69
2022/03/17 16:38:58;;;;;;;10.63;2.53;;;22.30;91.10;;;;;;5010911;28;20030;-69
2022/03/17 16:41:26;;;;;;;9.00;2.65;;;22.20;91.10;;;;;;5023713;28;20091;-69
2022/03/17 16:43:53;;;;;;;7.13;2.13;;;22.30;91.00;;;;;;5032489;28;20037;-69
2022/03/17 16:46:20;;;;;;;7.32;2.17;;;22.20;91.20;;;;;;5031769;28;20531;-69
2022/03/17 16:48:48;;;;;;;10.25;2.55;;;22.30;91.30;;;;;;5031857;28;20033;-69
2022/03/17 16:51:15;;;;;;;9.73;2.38;;;22.30;91.20;;;;;;5013983;28;20029;-69
2022/03/17 16:53:42;;;;;;;9.18;2.47;;;22.20;91.20;;;;;;5032611;28;20036;-70
2022/03/17 16:56:10;;;;;;;11.10;2.58;;;22.20;91.10;;;;;;5004133;28;20033;-69
2022/03/17 16:58:37;;;;;;;11.10;2.42;;;22.20;91.00;;;;;;4996392;28;20034;-69
2022/03/17 17:01:05;;;;;;;9.73;2.33;;;22.20;91.00;;;;;;5013807;28;20037;-69
2022/03/17 17:03:35;;;;;;;15.18;2.72;;;22.20;91.10;;;;;;5012371;28;20053;-69
2022/03/17 17:06:02;;;;;;;;;;;22.20;91.00;;;;;;5027463;28;20491;-69
2022/03/17 17:08:29;;;;;;;9.68;2.67;;;22.10;91.00;;;;;;5014036;28;19909;-69
2022/03/17 17:10:56;;;;;;;8.55;2.50;;;22.20;91.00;;;;;;5031224;28;20041;-69
2022/03/17 17:13:23;;;;;;;11.00;2.42;;;22.10;91.00;;;;;;5013093;28;20488;-69
2022/03/17 17:15:51;;;;;;;9.43;2.90;;;22.10;91.00;;;;;;4997009;28;20048;-69
2022/03/17 17:18:19;;;;;;;10.48;2.10;;;22.10;91.00;;;;;;5013726;28;20042;-69
2022/03/17 17:20:47;;;;;;;8.95;2.22;;;22.10;91.20;;;;;;5031400;28;20033;-69
2022/03/17 17:31:31;;;;;;;9.10;2.45;;;22.10;91.30;;;;;;5029350;28;20044;-70
2022/03/17 17:33:58;;;;;;;10.50;2.90;;;22.00;91.50;;;;;;5013763;28;20095;-69
2022/03/17 17:36:26;;;;;;;8.45;2.40;;;22.00;91.50;;;;;;5012801;28;20121;-69
2022/03/17 17:38:53;;;;;;;9.30;2.20;;;22.00;91.60;;;;;;5013567;28;20182;-69
2022/03/17 17:41:20;;;;;;;9.30;2.42;;;22.00;91.80;;;;;;5011778;28;20104;-69
2022/03/17 17:43:47;;;;;;;9.70;2.55;;;22.00;91.70;;;;;;5031027;28;20153;-69
2022/03/17 17:46:17;;;;;;;8.85;2.53;;;22.00;91.70;;;;;;5030819;28;20033;-70
2022/03/17 17:48:45;;;;;;;12.02;2.55;;;22.00;91.70;;;;;;4998063;28;20069;-69
2022/03/17 17:51:13;;;;;;;9.85;2.20;;;22.00;91.70;;;;;;5030722;28;20390;-69
2022/03/17 17:53:41;;;;;;;8.65;2.28;;;22.00;91.80;;;;;;5031647;28;20061;-69
2022/03/17 17:56:08;;;;;;;10.90;2.50;;;21.90;91.80;;;;;;5012904;28;20037;-68
2022/03/17 17:58:35;;;;;;;9.40;2.53;;;22.00;91.80;;;;;;5030218;28;20069;-68
2022/03/17 18:01:03;;;;;;;8.73;2.60;;;22.00;91.90;;;;;;5029437;28;20040;-68
2022/03/17 18:03:30;;;;;;;12.35;2.35;;;21.90;91.90;;;;;;4993558;28;20073;-69
2022/03/17 18:05:58;;;;;;;9.85;2.13;;;22.00;92.00;;;;;;5017914;28;20112;-69
2022/03/17 18:08:26;;;;;;;11.43;2.30;;;22.00;91.90;;;;;;5029328;28;20038;-69
2022/03/17 18:10:53;;;;;;;8.40;2.30;;;21.90;91.90;;;;;;5010139;28;20467;-70
2022/03/17 18:13:20;;;;;;;8.75;2.53;;;21.90;92.00;;;;;;5031045;28;20060;-70
2022/03/17 18:15:47;;;;;;;6.32;2.00;;;21.90;92.00;;;;;;5030929;28;20474;-69
2022/03/17 18:18:15;;;;;;;9.23;2.40;;;21.90;92.00;;;;;;5031091;28;20084;-69
2022/03/17 18:20:42;;;;;;;11.55;2.45;;;21.90;92.00;;;;;;5008291;28;20547;-70
2022/03/17 18:23:09;;;;;;;11.10;2.47;;;21.90;92.10;;;;;;5008226;28;20041;-70
2022/03/17 18:25:37;;;;;;;12.80;2.42;;;21.90;92.10;;;;;;5006634;28;20034;-69
2022/03/17 18:28:05;;;;;;;15.15;2.53;;;21.90;92.00;;;;;;5012665;28;20041;-69
2022/03/17 18:30:32;;;;;;;9.98;2.33;;;21.90;92.00;;;;;;5029323;28;20042;-70
2022/03/17 18:33:01;;;;;;;9.60;2.53;;;21.80;92.00;;;;;;5029838;28;20037;-69
2022/03/17 18:35:29;;;;;;;10.32;2.50;;;21.90;92.00;;;;;;4974183;28;20034;-70
2022/03/17 18:38:03;;;;;;;9.27;2.33;;;21.90;92.00;;;;;;5019513;28;20399;-70
2022/03/17 18:40:30;;;;;;;8.30;2.63;;;21.90;92.10;;;;;;5022709;28;20041;-69
2022/03/17 18:42:57;;;;;;;9.38;2.85;;;21.90;92.10;;;;;;5030040;28;20077;-69
2022/03/17 18:45:25;;;;;;;8.13;2.47;;;21.80;92.10;;;;;;5028900;28;20455;-69
2022/03/17 18:47:52;;;;;;;10.32;2.72;;;21.80;92.10;;;;;;5012607;28;20407;-69
2022/03/17 20:20:07;;;;;;;15.55;4.18;;;21.70;92.20;;;;;;5030083;28;20060;-75
2022/03/17 20:22:35;;;;;;;14.50;3.63;;;21.70;92.20;;;;;;4993239;28;20034;-75
2022/03/17 20:25:02;;;;;;;8.35;2.83;;;21.60;92.10;;;;;;5025987;28;20034;-76
2022/03/17 20:27:29;;;;;;;11.98;3.25;;;21.70;92.10;;;;;;5031841;28;20059;-76
2022/03/17 20:29:56;;;;;;;15.25;3.05;;;21.70;92.00;;;;;;5032136;28;20112;-76
2022/03/17 20:32:24;;;;;;;13.75;3.22;;;21.70;92.10;;;;;;5032150;28;20057;-76
2022/03/17 20:34:51;;;;;;;12.52;3.20;;;21.60;92.10;;;;;;5031443;28;20571;-75
2022/03/17 20:37:18;;;;;;;12.68;3.15;;;21.60;92.20;;;;;;5013147;28;20029;-75
2022/03/17 20:39:45;;;;;;;9.43;2.65;;;21.60;92.10;;;;;;5032115;28;20606;-76
2022/03/17 20:42:13;;;;;;;12.98;3.47;;;21.70;92.20;;;;;;5032452;28;20041;-76
2022/03/17 20:44:40;;;;;;;10.50;3.00;;;21.70;92.20;;;;;;5014849;28;20103;-76
2022/03/17 20:47:07;;;;;;;10.23;2.72;;;21.70;92.20;;;;;;5013375;28;20439;-76
2022/03/17 20:49:34;;;;;;;10.90;2.85;;;21.70;92.20;;;;;;5014133;28;20042;-75
2022/03/17 20:52:03;;;;;;;13.43;3.30;;;21.70;92.20;;;;;;5032383;28;20083;-75
2022/03/17 20:54:31;;;;;;;15.80;2.85;;;21.70;92.30;;;;;;4965493;28;20053;-75
2022/03/17 20:57:04;;;;;;;10.10;3.13;;;21.70;92.40;;;;;;5009006;28;20040;-75
2022/03/17 20:59:32;;;;;;;11.77;2.95;;;21.70;92.50;;;;;;5013996;28;20033;-76
2022/03/17 21:02:00;;;;;;;11.40;2.85;;;21.70;92.50;;;;;;4995661;28;20050;-76
2022/03/17 21:04:28;;;;;;;11.93;3.67;;;21.70;92.50;;;;;;5013640;28;20083;-75
2022/03/17 21:06:55;;;;;;;14.82;3.40;;;21.70;92.50;;;;;;5008275;28;20089;-75
2022/03/17 21:09:22;;;;;;;12.32;3.85;;;21.70;92.50;;;;;;5032396;28;20337;-75
2022/03/17 21:11:49;;;;;;;34.65;8.32;;;21.80;92.60;;;;;;5031904;28;20116;-75
2022/03/17 21:14:16;;;;;;;22.10;5.88;;;21.80;92.60;;;;;;5017954;28;20053;-76
2022/03/17 21:16:44;;;;;;;20.08;5.03;;;21.80;92.60;;;;;;5006335;28;20084;-75
